ADDS METAR Data INFO
IDs: Format: Raw Decoded Include TAF

Data at: 0032 UTC 17 Dec 2017

PAEG 162353Z AUTO 14006KT 10SM FEW030 FEW120 M01/M04 A2914 RMK AO2 SLP878 60000 T10111039 11006 21011 58002 TSNO $
PAEG 162253Z AUTO 14008KT 10SM BKN075 OVC090 M01/M04 A2915 RMK AO2 SLP881 T10061039 TSNO $
PAEG 162153Z AUTO 10SM BKN036 OVC065 M01/M03 A2915 RMK AO2 SLP880 T10061033 TSNO $
PAEG 162053Z AUTO VRB03KT 10SM OVC060 M01/M03 A2915 RMK AO2 SLP881 60000 T10061028 58013 TSNO $
PAEG 161953Z AUTO VRB04KT 10SM OVC055 M01/M03 A2916 RMK AO2 SNE1857 SLP886 P0000 T10061033 TSNO $
PAEG 161853Z AUTO 12006KT 5SM -SN BR OVC040 M01/M03 A2918 RMK AO2 SLP892 P0000 T10111033 TSNO $
PAEG 161825Z AUTO 13005KT 3SM -SN BR OVC030 M01/M03 A2919 RMK AO2 P0000 T10111033 TSNO $
PAEG 161811Z AUTO 13004KT 3SM -SN OVC028 M01/M03 A2919 RMK AO2 P0000 T10061033 TSNO $
PAEG 161753Z AUTO 13006KT 3SM -SN OVC030 M01/M04 A2919 RMK AO2 SNB27 SLP895 P0000 60000 T10061039 10006 21006 56010 TSNO $
PAEG 161653Z AUTO VRB03KT 10SM OVC060 00/M04 A2919 RMK AO2 SLP896 T00001044 TSNO $
PAEG 161553Z AUTO 09003KT 10SM OVC070 01/M05 A2920 RMK AO2 SLP902 T00061050 TSNO $
PAEG 161453Z AUTO VRB03KT 10SM OVC080 00/M04 A2922 RMK AO2 SLP907 T00001044 58024 TSNO $
PAEG 161353Z AUTO VRB06KT 10SM BKN080 OVC090 00/M04 A2925 RMK AO2 SLP916 T00001044 TSNO $
PAEG 161253Z AUTO 13004KT 10SM SCT100 00/M05 A2927 RMK AO2 SLP923 T00001050 TSNO $
PAEG 161153Z AUTO 13005KT 10SM BKN110 00/M04 A2929 RMK AO2 SLP933 70001 T00001044 10000 21022 58023 TSNO $
PAEG 161053Z AUTO VRB06G15KT 10SM CLR 00/M04 A2932 RMK AO2 SLP943 T00001044 TSNO $
PAEG 160953Z AUTO VRB04KT 10SM BKN100 00/M03 A2935 RMK AO2 SLP950 T00001033 TSNO $
PAEG 151922Z AUTO 00000KT 10SM OVC004 M08/M09 A2963 RMK AO2 T10831094 TSNO $
PAEG 151853Z AUTO 00000KT 10SM OVC006 M08/M10 A2962 RMK AO2 CIG 005V009 SLP046 T10831100 TSNO $
PAEG 151840Z AUTO 00000KT 10SM BKN005 OVC009 M09/M10 A2962 RMK AO2 T10891100 TSNO $
PAEG 151809Z AUTO 00000KT 10SM OVC004 M09/M10 A2961 RMK AO2 T10891100 TSNO $
PAEG 151756Z AUTO 00000KT 4SM BR OVC006 M08/M10 A2962 RMK AO2 T10831100 TSNO $
PAEG 151753Z AUTO 00000KT 1 1/2SM BR OVC004 M08/M09 A2961 RMK AO2 SLP043 60001 T10831094 11028 21094 53007 TSNO $
PAEG 151731Z AUTO 00000KT 1/2SM FZFG VV003 M08/M09 A2961 RMK AO2 T10831094 TSNO $
PAEG 151719Z AUTO 00000KT 1 3/4SM BR OVC002 M09/M10 A2961 RMK AO2 VIS 3/4V5 T10891100 TSNO $
PAEG 151653Z AUTO 00000KT 10SM BKN002 OVC080 M09/M10 A2961 RMK AO2 SLP041 T10891100 TSNO $
PAEG 151644Z AUTO 00000KT 10SM BKN002 BKN080 M09/M10 A2961 RMK AO2 T10891100 TSNO $
PAEG 151635Z AUTO 17003KT 10SM SCT002 BKN080 M09/M11 A2961 RMK AO2 T10941106 TSNO $
PAEG 151553Z AUTO 18003KT 10SM CLR M08/M09 A2960 RMK AO2 SLP038 T10831094 TSNO $
PAEG 151453Z AUTO 00000KT 10SM FEW008 M06/M07 A2959 RMK AO2 SLP035 60001 T10561067 52010 TSNO $
PAEG 151427Z AUTO 00000KT 10SM SCT008 BKN110 M05/M06 A2959 RMK AO2 T10501061 TSNO $
PAEG 151419Z AUTO 00000KT 10SM BKN008 BKN110 M05/M06 A2959 RMK AO2 T10501061 TSNO $
PAEG 151410Z AUTO 00000KT 10SM SCT008 BKN085 OVC110 M05/M06 A2959 RMK AO2 T10501061 TSNO $
PAEG 151353Z AUTO 00000KT 10SM FEW029 OVC090 M04/M06 A2958 RMK AO2 SNE24 SLP030 P0000 T10441056 TSNO $
PAEG 151324Z AUTO 00000KT 6SM BR SCT027 OVC095 M04/M04 A2958 RMK AO2 SNE24 P0000 T10391044 TSNO $
PAEG 151310Z AUTO 00000KT 3SM -SN BR BKN029 OVC090 M03/M04 A2957 RMK AO2 P0000 T10331044 TSNO $
PAEG 151302Z AUTO 00000KT 2 1/2SM -SN BR OVC031 M03/M04 A2957 RMK AO2 P0000 T10331044 TSNO $
PAEG 151253Z AUTO 00000KT 3SM -SN BR OVC033 M03/M04 A2957 RMK AO2 SLP027 P0001 T10331044 TSNO $
PAEG 151237Z AUTO 00000KT 2 1/2SM -SN BR OVC035 M03/M04 A2957 RMK AO2 P0001 T10281039 TSNO $